createdAt,value
2019-01-28T00:01:50.591Z,10.40
2019-01-28T00:03:57.283Z,5.67
2019-01-28T00:06:01.481Z,1.73
2019-01-28T00:08:08.319Z,1.40
2019-01-28T00:10:12.442Z,0.80
2019-01-28T00:12:16.694Z,1.00
2019-01-28T00:14:20.799Z,0.60
2019-01-28T00:16:25.006Z,0.70
2019-01-28T00:18:29.220Z,0.63
2019-01-28T00:20:33.738Z,101.17
2019-01-28T00:22:37.890Z,752.83
2019-01-28T00:24:43.020Z,743.03
2019-01-28T00:26:52.044Z,338.33
2019-01-28T00:28:56.792Z,47.53
2019-01-28T00:31:02.420Z,747.50
2019-01-28T00:33:06.873Z,676.93
2019-01-28T00:35:11.375Z,525.87
2019-01-28T00:37:15.483Z,261.30
2019-01-28T00:39:19.963Z,56.90
2019-01-28T00:41:23.960Z,23.80
2019-01-28T00:43:28.091Z,9.20
2019-01-28T00:45:32.603Z,3.80
2019-01-28T00:47:36.767Z,2.10
2019-01-28T00:49:40.954Z,1.50
2019-01-28T00:51:45.540Z,1.13
2019-01-28T00:53:52.042Z,1.00
2019-01-28T00:55:58.241Z,0.90
2019-01-28T00:58:07.603Z,1.03
2019-01-28T01:00:14.706Z,0.80
2019-01-28T01:02:18.797Z,0.87
2019-01-28T01:04:23.339Z,0.90
2019-01-28T01:06:27.459Z,0.70
2019-01-28T01:08:31.550Z,0.70
2019-01-28T01:10:36.075Z,0.90
2019-01-28T01:12:40.157Z,1.00
2019-01-28T01:14:44.276Z,0.60
2019-01-28T01:16:49.118Z,0.80
2019-01-28T01:18:55.111Z,0.67
2019-01-28T01:21:03.661Z,1.00
2019-01-28T01:23:11.886Z,0.67
2019-01-28T01:25:16.112Z,1.03
2019-01-28T01:27:20.308Z,0.77
2019-01-28T01:29:24.857Z,0.80
2019-01-28T01:31:29.139Z,0.80
2019-01-28T01:33:33.234Z,0.83
2019-01-28T01:35:37.393Z,0.70
2019-01-28T01:37:41.482Z,0.87
2019-01-28T01:39:45.687Z,0.97
2019-01-28T01:41:49.865Z,0.80
2019-01-28T01:43:53.969Z,0.70
2019-01-28T01:46:00.016Z,0.60
2019-01-28T01:48:08.589Z,0.63
2019-01-28T01:50:21.192Z,0.80
2019-01-28T01:52:25.239Z,0.67
2019-01-28T01:54:29.936Z,0.70
2019-01-28T01:56:34.009Z,0.80
2019-01-28T01:58:38.107Z,0.70
2019-01-28T02:00:42.539Z,0.90
2019-01-28T02:02:46.750Z,0.80
2019-01-28T02:04:50.812Z,0.70
2019-01-28T02:06:55.207Z,0.70
2019-01-28T02:08:59.692Z,0.70
2019-01-28T02:11:07.302Z,0.77
2019-01-28T02:13:15.437Z,0.60
2019-01-28T02:15:23.420Z,0.80
2019-01-28T02:17:27.485Z,0.80
2019-01-28T02:19:32.629Z,0.73
2019-01-28T02:21:36.687Z,0.90
2019-01-28T02:23:40.863Z,0.90
2019-01-28T02:25:45.487Z,1.00
2019-01-28T02:27:49.731Z,1.00
2019-01-28T02:29:53.825Z,1.00
2019-01-28T02:31:58.397Z,0.80
2019-01-28T02:34:02.510Z,0.80
2019-01-28T02:36:07.601Z,0.77
2019-01-28T02:38:16.776Z,0.87
2019-01-28T02:40:25.404Z,0.90
2019-01-28T02:42:29.797Z,1.07
2019-01-28T02:44:34.567Z,1.20
2019-01-28T02:46:40.169Z,1.07
2019-01-28T02:48:53.199Z,0.80
2019-01-28T02:50:56.889Z,1.10
2019-01-28T02:53:00.937Z,1.10
2019-01-28T02:55:05.351Z,1.00
2019-01-28T02:57:09.446Z,1.10
2019-01-28T02:59:13.588Z,1.00
2019-01-28T03:01:17.936Z,0.87
2019-01-28T03:03:22.339Z,1.17
2019-01-28T03:05:26.447Z,0.90
2019-01-28T03:07:30.552Z,1.50
2019-01-28T03:09:35.071Z,0.93
2019-01-28T03:11:39.573Z,1.10
2019-01-28T03:13:45.893Z,0.80
2019-01-28T03:15:52.399Z,1.00
2019-01-28T03:17:56.756Z,1.13
2019-01-28T03:20:03.372Z,0.97
2019-01-28T03:22:07.515Z,1.30
2019-01-28T03:24:11.587Z,1.00
2019-01-28T03:26:15.702Z,1.10
2019-01-28T03:28:19.809Z,0.97
2019-01-28T03:30:23.943Z,0.80
2019-01-28T03:32:28.022Z,0.90
2019-01-28T03:34:34.115Z,0.93
2019-01-28T03:36:38.219Z,1.10
2019-01-28T03:38:42.348Z,0.87
2019-01-28T03:40:48.116Z,1.00
2019-01-28T03:42:56.290Z,0.80
2019-01-28T03:45:07.783Z,0.90
2019-01-28T03:47:12.204Z,0.80
2019-01-28T03:49:16.284Z,1.10
2019-01-28T03:51:20.385Z,1.00
2019-01-28T03:53:25.035Z,1.07
2019-01-28T03:55:29.146Z,0.80
2019-01-28T03:57:33.242Z,0.90
2019-01-28T03:59:38.087Z,1.00
2019-01-28T04:01:42.436Z,0.87
2019-01-28T04:03:47.191Z,0.70
2019-01-28T04:05:53.765Z,0.93
2019-01-28T04:07:59.598Z,0.80
2019-01-28T04:10:08.694Z,1.23
2019-01-28T04:12:12.872Z,0.70
2019-01-28T04:14:17.018Z,0.80
2019-01-28T04:16:21.099Z,1.07
2019-01-28T04:18:25.511Z,1.00
2019-01-28T04:20:29.749Z,0.73
2019-01-28T04:22:33.942Z,1.00
2019-01-28T04:24:38.177Z,0.70
2019-01-28T04:26:42.258Z,0.90
2019-01-28T04:28:46.506Z,0.90
2019-01-28T04:30:50.644Z,1.03
2019-01-28T04:32:56.002Z,1.07
2019-01-28T04:35:02.502Z,0.90
2019-01-28T04:37:09.430Z,0.93
2019-01-28T04:39:18.181Z,0.83
2019-01-28T04:41:22.336Z,0.80
2019-01-28T04:43:26.449Z,1.17
2019-01-28T04:45:30.844Z,0.93
2019-01-28T04:47:34.948Z,0.90
2019-01-28T04:49:39.260Z,0.87
2019-01-28T04:51:43.629Z,0.80
2019-01-28T04:53:47.714Z,0.70
2019-01-28T04:55:51.798Z,0.90
2019-01-28T04:57:55.983Z,0.93
2019-01-28T05:00:02.397Z,0.80
2019-01-28T05:02:08.910Z,0.83
2019-01-28T05:04:18.515Z,0.93
2019-01-28T05:06:22.607Z,0.90
2019-01-28T05:08:26.718Z,0.80
2019-01-28T05:10:33.309Z,1.07
2019-01-28T05:12:37.492Z,0.60
2019-01-28T05:14:41.621Z,0.77
2019-01-28T05:16:45.712Z,0.80
2019-01-28T05:18:49.773Z,0.73
2019-01-28T05:20:53.917Z,0.93
2019-01-28T05:22:58.657Z,0.83
2019-01-28T05:25:03.315Z,0.90
2019-01-28T05:27:11.427Z,0.77
2019-01-28T05:29:24.851Z,0.90
2019-01-28T05:31:28.925Z,1.03
2019-01-28T05:33:33.218Z,0.80
2019-01-28T05:35:37.387Z,0.80
2019-01-28T05:37:41.511Z,0.90
2019-01-28T05:39:45.740Z,0.93
2019-01-28T05:41:49.807Z,0.80
2019-01-28T05:43:53.891Z,0.90
2019-01-28T05:45:58.348Z,0.83
2019-01-28T05:48:02.426Z,0.67
2019-01-28T05:50:07.311Z,0.90
2019-01-28T05:52:13.573Z,1.00
2019-01-28T05:54:17.834Z,0.97
2019-01-28T05:56:21.947Z,1.00
2019-01-28T05:58:26.658Z,0.87
2019-01-28T06:00:40.082Z,1.00
2019-01-28T06:02:47.173Z,1.13
2019-01-28T06:04:53.530Z,0.80
2019-01-28T06:07:01.094Z,0.83
2019-01-28T06:09:08.746Z,1.10
2019-01-28T06:11:12.944Z,0.73
2019-01-28T06:13:17.061Z,0.97
2019-01-28T06:15:21.212Z,0.90
2019-01-28T06:17:25.307Z,0.90
2019-01-28T06:19:29.386Z,1.00
2019-01-28T06:21:33.498Z,0.90
2019-01-28T06:23:37.666Z,0.90
2019-01-28T06:25:44.653Z,1.03
2019-01-28T06:27:52.635Z,0.80
2019-01-28T06:30:00.275Z,0.90
2019-01-28T06:32:05.214Z,0.80
2019-01-28T06:34:09.744Z,0.77
2019-01-28T06:36:13.835Z,0.80
2019-01-28T06:38:18.447Z,229.63
2019-01-28T06:40:24.673Z,188.10
2019-01-28T06:42:28.859Z,591.93
2019-01-28T06:44:33.030Z,200.80
2019-01-28T06:46:37.174Z,411.40
2019-01-28T06:48:41.247Z,546.33
2019-01-28T06:50:45.431Z,26.70
2019-01-28T06:52:49.517Z,10.70
2019-01-28T06:54:57.203Z,3.80
2019-01-28T06:57:02.156Z,647.90
2019-01-28T06:59:10.223Z,141.40
2019-01-28T07:01:14.730Z,366.17
2019-01-28T07:03:18.828Z,12.97
2019-01-28T07:05:22.955Z,4.47
2019-01-28T07:07:27.332Z,3.00
2019-01-28T07:09:31.529Z,1.90
2019-01-28T07:11:35.666Z,1.80
2019-01-28T07:13:39.820Z,1.60
2019-01-28T07:15:44.007Z,1.80
2019-01-28T07:17:54.694Z,1.70
2019-01-28T07:19:54.195Z,999.90
2019-01-28T07:22:00.895Z,27.77
2019-01-28T07:24:05.548Z,4.17
2019-01-28T07:26:13.845Z,296.10
2019-01-28T07:28:18.351Z,269.77
2019-01-28T07:30:25.578Z,25.27
2019-01-28T07:32:29.792Z,10.70
2019-01-28T07:34:34.003Z,4.30
2019-01-28T07:36:38.503Z,854.13
2019-01-28T07:38:42.668Z,737.60
2019-01-28T07:40:46.867Z,812.73
2019-01-28T07:42:51.533Z,140.27
2019-01-28T07:44:56.008Z,880.10
2019-01-28T07:47:03.601Z,527.40
2019-01-28T07:49:13.025Z,248.47
2019-01-28T07:51:23.140Z,80.67
2019-01-28T07:53:27.681Z,29.27
2019-01-28T07:55:31.918Z,17.40
2019-01-28T07:57:36.002Z,489.87
2019-01-28T07:59:44.120Z,761.70
2019-01-28T08:01:48.218Z,126.27
2019-01-28T08:03:52.298Z,728.57
2019-01-28T08:05:56.435Z,816.57
2019-01-28T08:08:01.446Z,604.67
2019-01-28T08:10:08.581Z,173.37
2019-01-28T08:12:22.382Z,907.43
2019-01-28T08:14:26.513Z,420.60
2019-01-28T08:16:30.966Z,158.40
2019-01-28T08:18:35.079Z,712.87
2019-01-28T08:20:39.446Z,867.03
2019-01-28T08:22:44.191Z,289.27
2019-01-28T08:24:48.327Z,48.93
2019-01-28T08:26:52.564Z,348.73
2019-01-28T08:28:56.706Z,121.97
2019-01-28T08:31:01.288Z,30.03
2019-01-28T08:33:06.540Z,810.23
2019-01-28T08:35:14.134Z,497.73
2019-01-28T08:37:22.613Z,120.13
2019-01-28T08:39:30.923Z,500.30
2019-01-28T08:41:35.750Z,741.30
2019-01-28T08:43:40.999Z,119.10
2019-01-28T08:45:46.676Z,42.97
2019-01-28T08:47:51.587Z,95.40
2019-01-28T08:49:55.838Z,118.50
2019-01-28T08:52:00.121Z,176.03
2019-01-28T08:54:04.808Z,326.07
2019-01-28T08:56:16.503Z,938.47
2019-01-28T08:58:15.102Z,258.00
2019-01-28T09:00:24.687Z,296.20
2019-01-28T09:02:28.720Z,257.47
2019-01-28T09:04:32.892Z,598.97
2019-01-28T09:06:37.012Z,611.47
2019-01-28T09:08:41.550Z,667.10
2019-01-28T09:10:48.764Z,201.60
2019-01-28T09:12:56.527Z,785.30
2019-01-28T09:15:04.073Z,756.87
2019-01-28T09:17:08.285Z,527.33
2019-01-28T09:19:12.783Z,426.40
2019-01-28T09:21:16.902Z,130.60
2019-01-28T09:23:21.219Z,211.77
2019-01-28T09:25:25.652Z,988.53
2019-01-28T09:27:29.760Z,784.03
2019-01-28T09:29:34.021Z,360.00
2019-01-28T09:31:38.405Z,86.43
2019-01-28T09:33:43.092Z,346.87
2019-01-28T09:35:49.336Z,728.63
2019-01-28T09:37:56.631Z,207.27
2019-01-28T09:40:07.450Z,38.40
2019-01-28T09:42:11.949Z,30.93
2019-01-28T09:44:17.268Z,52.23
2019-01-28T09:46:21.348Z,10.47
2019-01-28T09:48:25.502Z,4.00
2019-01-28T09:50:30.292Z,15.93
2019-01-28T09:52:34.898Z,440.63
2019-01-28T09:54:39.032Z,25.07
2019-01-28T09:56:43.683Z,3.17
2019-01-28T09:58:48.452Z,3.07
2019-01-28T10:00:54.730Z,564.20
2019-01-28T10:03:01.053Z,52.23
2019-01-28T10:05:09.851Z,16.17
2019-01-28T10:07:14.053Z,2.60
2019-01-28T10:09:18.459Z,4.70
2019-01-28T10:11:23.156Z,33.97
2019-01-28T10:13:27.712Z,483.67
2019-01-28T10:15:32.382Z,625.40
2019-01-28T10:17:36.607Z,450.03
2019-01-28T10:19:41.662Z,661.10
2019-01-28T10:21:46.473Z,647.17
2019-01-28T10:23:51.034Z,147.40
2019-01-28T10:25:57.800Z,747.47
2019-01-28T10:28:04.920Z,210.10
2019-01-28T10:30:15.065Z,48.03
2019-01-28T10:32:20.911Z,10.93
2019-01-28T10:34:26.959Z,36.97
2019-01-28T10:36:34.227Z,456.67
2019-01-28T10:38:38.020Z,648.80
2019-01-28T10:40:42.431Z,734.07
2019-01-28T10:42:46.615Z,253.00
2019-01-28T10:44:51.293Z,427.90
2019-01-28T10:46:55.819Z,475.17
2019-01-28T10:49:06.005Z,383.60
2019-01-28T10:51:11.864Z,766.90
2019-01-28T10:53:22.695Z,200.77
2019-01-28T10:55:30.394Z,49.03
2019-01-28T10:57:35.425Z,130.57
2019-01-28T10:59:40.217Z,999.90
2019-01-28T11:01:44.704Z,248.43
2019-01-28T11:03:49.576Z,279.27
2019-01-28T11:05:54.199Z,56.10
2019-01-28T11:07:58.757Z,326.40
2019-01-28T11:10:06.611Z,86.37
2019-01-28T11:12:15.640Z,201.40
2019-01-28T11:14:24.180Z,85.47
2019-01-28T11:16:29.749Z,10.50
2019-01-28T11:18:34.509Z,323.30
2019-01-28T11:20:38.740Z,91.43
2019-01-28T11:22:43.249Z,8.83
2019-01-28T11:24:48.320Z,3.10
2019-01-28T11:26:52.616Z,2.43
2019-01-28T11:28:57.720Z,2.53
2019-01-28T11:31:12.946Z,1.80
2019-01-28T11:33:24.933Z,121.37
2019-01-28T11:35:29.932Z,178.83
2019-01-28T11:37:34.753Z,650.73
2019-01-28T11:39:39.534Z,672.43
2019-01-28T11:41:44.361Z,890.13
2019-01-28T11:43:49.323Z,799.43
2019-01-28T11:45:57.137Z,675.87
2019-01-28T11:48:01.946Z,906.73
2019-01-28T11:50:08.184Z,893.70
2019-01-28T11:52:14.014Z,418.57
2019-01-28T11:54:21.417Z,630.40
2019-01-28T11:56:25.682Z,213.40
2019-01-28T11:58:29.939Z,122.63
2019-01-28T12:00:52.541Z,69.87
2019-01-28T12:02:59.428Z,859.10
2019-01-28T12:05:05.677Z,660.17
2019-01-28T12:07:10.093Z,139.70
2019-01-28T12:09:14.580Z,137.27
2019-01-28T12:11:20.046Z,42.50
2019-01-28T12:13:24.844Z,11.47
2019-01-28T12:15:30.036Z,6.17
2019-01-28T12:17:34.707Z,47.80
2019-01-28T12:19:39.349Z,18.50
2019-01-28T12:21:44.031Z,3.27
2019-01-28T12:23:52.373Z,1.73
2019-01-28T12:25:58.646Z,1.40
2019-01-28T12:28:08.082Z,1.53
2019-01-28T12:30:16.900Z,1.43
2019-01-28T12:32:22.105Z,1.53
2019-01-28T12:34:27.753Z,1.40
2019-01-28T12:36:32.316Z,1.20
2019-01-28T12:38:37.040Z,1.10
2019-01-28T12:40:41.364Z,1.13
2019-01-28T12:42:46.788Z,1.20
2019-01-28T12:44:53.530Z,1.20
2019-01-28T12:46:59.807Z,1.10
2019-01-28T12:49:10.213Z,1.10
2019-01-28T12:51:14.760Z,2.33
2019-01-28T12:53:19.700Z,745.80
2019-01-28T12:55:24.256Z,745.93
2019-01-28T12:57:30.419Z,932.37
2019-01-28T12:59:36.023Z,919.50
2019-01-28T13:01:41.100Z,950.27
2019-01-28T13:03:45.832Z,934.93
2019-01-28T13:05:53.743Z,501.33
2019-01-28T13:08:01.469Z,815.03
2019-01-28T13:10:09.185Z,428.10
2019-01-28T13:12:17.289Z,219.10
2019-01-28T13:14:22.308Z,146.23
2019-01-28T13:16:29.785Z,156.10
2019-01-28T13:18:34.556Z,83.17
2019-01-28T13:20:40.404Z,938.10
2019-01-28T13:22:46.342Z,897.70
2019-01-28T13:24:50.738Z,578.27
2019-01-28T13:26:55.594Z,468.07
2019-01-28T13:29:02.018Z,603.27
2019-01-28T13:31:17.034Z,219.53
2019-01-28T13:33:22.088Z,76.03
2019-01-28T13:35:27.617Z,444.03
2019-01-28T13:37:32.739Z,169.97
2019-01-28T13:39:40.946Z,822.50
2019-01-28T13:41:46.774Z,523.13
2019-01-28T13:43:55.293Z,776.80
2019-01-28T13:46:07.272Z,842.10
2019-01-28T13:48:19.574Z,482.17
2019-01-28T13:50:24.095Z,350.63
2019-01-28T13:52:29.296Z,194.57
2019-01-28T13:54:35.846Z,116.63
2019-01-28T13:56:40.420Z,198.17
2019-01-28T13:58:51.542Z,48.97
2019-01-28T14:00:56.425Z,11.83
2019-01-28T14:03:05.782Z,5.90
2019-01-28T14:05:29.155Z,2.93
2019-01-28T14:07:34.609Z,2.30
2019-01-28T14:09:42.222Z,402.60
2019-01-28T14:11:49.318Z,2.60
2019-01-28T14:13:55.987Z,1.67
2019-01-28T14:16:02.106Z,1.30
2019-01-28T14:18:21.110Z,1.47
2019-01-28T14:20:26.878Z,1.23
2019-01-28T14:22:32.583Z,1.40
2019-01-28T14:24:39.399Z,97.73
2019-01-28T14:26:45.593Z,527.63
2019-01-28T14:28:55.431Z,209.87
2019-01-28T14:31:09.195Z,65.70
2019-01-28T14:33:16.071Z,623.30
2019-01-28T14:35:30.883Z,365.30
2019-01-28T14:37:38.845Z,211.13
2019-01-28T14:39:44.052Z,532.23
2019-01-28T14:42:02.434Z,641.27
2019-01-28T14:44:07.651Z,208.17
2019-01-28T14:46:38.367Z,82.20
2019-01-28T14:48:49.325Z,687.60
2019-01-28T14:50:51.394Z,903.40
2019-01-28T14:52:57.352Z,885.37
2019-01-28T14:55:15.653Z,720.43
2019-01-28T14:57:20.662Z,691.93
2019-01-28T14:59:25.818Z,894.10
2019-01-28T15:01:35.477Z,639.80
2019-01-28T15:04:09.694Z,520.40
2019-01-28T15:06:18.529Z,285.47
2019-01-28T15:08:28.637Z,136.13
2019-01-28T15:10:36.475Z,207.33
2019-01-28T15:12:52.073Z,58.60
2019-01-28T15:15:11.584Z,19.63
2019-01-28T15:17:17.582Z,7.60
2019-01-28T15:19:29.357Z,3.83
2019-01-28T15:21:40.993Z,2.50
2019-01-28T15:23:49.694Z,1.87
2019-01-28T15:26:04.345Z,1.70
2019-01-28T15:28:09.180Z,390.60
2019-01-28T15:30:24.718Z,883.77
2019-01-28T15:32:30.605Z,602.23
2019-01-28T15:34:39.766Z,251.30
2019-01-28T15:36:48.351Z,78.00
2019-01-28T15:38:57.006Z,114.33
2019-01-28T15:41:10.941Z,455.47
2019-01-28T15:43:18.551Z,896.23
2019-01-28T15:45:30.839Z,648.40
2019-01-28T15:47:36.806Z,152.80
2019-01-28T15:49:42.969Z,89.93
2019-01-28T15:51:56.842Z,79.43
2019-01-28T15:54:09.353Z,698.10
2019-01-28T15:56:16.207Z,943.40
2019-01-28T15:58:23.572Z,374.43
2019-01-28T16:00:29.823Z,152.00
2019-01-28T16:02:35.415Z,86.57
2019-01-28T16:04:40.295Z,36.40
2019-01-28T16:06:48.889Z,14.23
2019-01-28T16:08:59.510Z,7.10
2019-01-28T16:11:10.778Z,3.30
2019-01-28T16:13:18.294Z,2.53
2019-01-28T16:15:30.020Z,2.00
2019-01-28T16:17:36.591Z,1.83
2019-01-28T16:19:43.246Z,1.37
2019-01-28T16:21:50.231Z,54.30
2019-01-28T16:23:56.018Z,607.47
2019-01-28T16:26:02.178Z,785.70
2019-01-28T16:28:22.547Z,857.30
2019-01-28T16:30:28.799Z,321.13
2019-01-28T16:32:35.208Z,474.27
2019-01-28T16:34:42.131Z,652.10
2019-01-28T16:37:07.564Z,463.73
2019-01-28T16:39:18.382Z,223.43
2019-01-28T16:41:23.424Z,77.80
2019-01-28T16:43:32.872Z,34.27
2019-01-28T16:45:42.096Z,164.20
2019-01-28T16:47:54.564Z,454.73
2019-01-28T16:50:00.512Z,95.53
2019-01-28T16:52:11.944Z,191.10
2019-01-28T16:54:24.740Z,139.67
2019-01-28T16:56:29.552Z,111.40
2019-01-28T16:58:38.060Z,192.67
2019-01-28T17:00:47.425Z,71.90
2019-01-28T17:02:52.090Z,45.37
2019-01-28T17:04:57.183Z,13.90
2019-01-28T17:07:05.432Z,7.10
2019-01-28T17:09:14.415Z,3.90
2019-01-28T17:11:30.076Z,32.00
2019-01-28T17:13:40.237Z,115.80
2019-01-28T17:15:51.969Z,14.13
2019-01-28T17:17:59.278Z,546.10
2019-01-28T17:20:15.750Z,233.83
2019-01-28T17:22:28.039Z,87.00
2019-01-28T17:24:30.274Z,12.03
2019-01-28T17:26:37.234Z,53.40
2019-01-28T17:28:42.117Z,55.57
2019-01-28T17:30:50.873Z,102.93
2019-01-28T17:32:56.067Z,12.00
2019-01-28T17:35:00.834Z,26.60
2019-01-28T17:37:06.408Z,4.40
2019-01-28T17:39:16.431Z,165.03
2019-01-28T17:41:35.422Z,30.20
2019-01-28T17:43:40.872Z,5.80
2019-01-28T17:45:52.008Z,266.60
2019-01-28T17:47:57.734Z,335.30
2019-01-28T17:50:10.901Z,401.03
2019-01-28T17:52:20.406Z,58.17
2019-01-28T17:54:31.498Z,344.10
2019-01-28T17:56:42.240Z,359.90
2019-01-28T17:58:59.907Z,360.57
2019-01-28T18:01:06.501Z,123.10
2019-01-28T18:03:11.054Z,106.03
2019-01-28T18:05:20.155Z,78.37
2019-01-28T18:07:27.111Z,36.80
2019-01-28T18:09:32.875Z,8.80
2019-01-28T18:11:39.735Z,4.60
2019-01-28T18:13:50.361Z,3.50
2019-01-28T18:15:58.994Z,88.97
2019-01-28T18:18:14.571Z,314.67
2019-01-28T18:20:23.019Z,48.60
2019-01-28T18:22:43.316Z,9.47
2019-01-28T18:24:50.759Z,614.40
2019-01-28T18:27:07.286Z,598.97
2019-01-28T18:29:12.920Z,239.27
2019-01-28T18:31:24.165Z,50.60
2019-01-28T18:33:32.680Z,57.77
2019-01-28T18:35:42.508Z,9.47
2019-01-28T18:37:56.088Z,5.60
2019-01-28T18:40:17.032Z,4.60
2019-01-28T18:42:30.853Z,7.40
2019-01-28T18:44:43.594Z,3.87
2019-01-28T18:46:48.934Z,3.53
2019-01-28T18:48:58.808Z,3.23
2019-01-28T18:51:19.855Z,335.00
2019-01-28T18:53:33.284Z,771.90
2019-01-28T18:55:41.492Z,234.97
2019-01-28T18:57:48.724Z,41.80
2019-01-28T18:59:59.753Z,10.00
2019-01-28T19:02:19.264Z,60.27
2019-01-28T19:04:27.809Z,9.23
2019-01-28T19:07:14.808Z,4.40
2019-01-28T19:09:40.937Z,51.80
2019-01-28T19:12:19.662Z,106.50
2019-01-28T19:14:57.833Z,96.77
2019-01-28T19:17:19.325Z,129.93
2019-01-28T19:19:48.190Z,323.40
2019-01-28T19:22:07.176Z,95.17
2019-01-28T19:24:18.469Z,208.60
2019-01-28T19:26:26.999Z,106.47
2019-01-28T19:28:34.515Z,529.80
2019-01-28T19:30:45.380Z,734.17
2019-01-28T19:32:55.375Z,294.77
2019-01-28T19:35:01.745Z,57.27
2019-01-28T19:37:10.010Z,314.53
2019-01-28T19:39:30.813Z,165.57
2019-01-28T19:41:40.194Z,28.87
2019-01-28T19:43:52.616Z,766.20
2019-01-28T19:46:01.048Z,872.97
2019-01-28T19:48:21.139Z,294.53
2019-01-28T19:50:27.386Z,87.43
2019-01-28T19:52:35.666Z,597.10
2019-01-28T19:54:40.618Z,750.97
2019-01-28T19:56:47.580Z,209.43
2019-01-28T19:58:55.641Z,73.83
2019-01-28T20:01:01.335Z,38.97
2019-01-28T20:03:15.404Z,313.20
2019-01-28T20:05:39.085Z,27.43
2019-01-28T20:07:53.473Z,161.33
2019-01-28T20:09:59.511Z,204.60
2019-01-28T20:12:10.608Z,380.67
2019-01-28T20:14:26.658Z,95.03
2019-01-28T20:16:34.887Z,24.97
2019-01-28T20:18:43.949Z,4.90
2019-01-28T20:20:50.459Z,3.03
2019-01-28T20:22:57.001Z,3.03
2019-01-28T20:25:04.090Z,194.70
2019-01-28T20:27:13.541Z,14.73
2019-01-28T20:29:29.616Z,4.10
2019-01-28T20:31:45.756Z,2.50
2019-01-28T20:33:51.686Z,1.67
2019-01-28T20:35:57.529Z,1.60
2019-01-28T20:38:03.505Z,1.40
2019-01-28T20:40:11.885Z,1.37
2019-01-28T20:42:20.112Z,1.20
2019-01-28T20:44:26.783Z,1.50
2019-01-28T20:46:31.977Z,1.23
2019-01-28T20:48:36.446Z,1.27
2019-01-28T20:50:42.413Z,1.23
2019-01-28T20:52:52.622Z,1.33
2019-01-28T20:54:58.580Z,1.30
2019-01-28T20:57:04.897Z,22.03
2019-01-28T20:59:10.639Z,337.67
2019-01-28T21:01:19.499Z,43.50
2019-01-28T21:03:27.966Z,265.37
2019-01-28T21:05:37.771Z,158.93
2019-01-28T21:07:46.272Z,259.40
2019-01-28T21:09:54.144Z,152.13
2019-01-28T21:12:04.010Z,376.40
2019-01-28T21:14:10.210Z,129.40
2019-01-28T21:16:19.810Z,886.17
2019-01-28T21:18:24.417Z,261.57
2019-01-28T21:20:32.153Z,86.20
2019-01-28T21:22:36.583Z,21.60
2019-01-28T21:24:41.662Z,7.50
2019-01-28T21:26:46.375Z,2.90
2019-01-28T21:28:53.825Z,2.20
2019-01-28T21:31:03.940Z,1.80
2019-01-28T21:33:11.749Z,1.27
2019-01-28T21:35:21.024Z,1.20
2019-01-28T21:37:34.188Z,1.17
2019-01-28T21:39:40.132Z,1.20
2019-01-28T21:41:45.820Z,1.07
2019-01-28T21:43:52.257Z,1.00
2019-01-28T21:46:00.822Z,1.10
2019-01-28T21:48:09.642Z,0.90
2019-01-28T21:50:17.603Z,0.87
2019-01-28T21:52:22.039Z,60.47
2019-01-28T21:54:27.242Z,413.43
2019-01-28T21:56:33.044Z,169.27
2019-01-28T21:58:38.122Z,380.00
2019-01-28T22:00:44.621Z,840.07
2019-01-28T22:02:49.712Z,609.03
2019-01-28T22:04:55.337Z,247.83
2019-01-28T22:07:04.415Z,82.43
2019-01-28T22:09:13.576Z,578.67
2019-01-28T22:11:23.717Z,232.67
2019-01-28T22:13:29.458Z,49.47
2019-01-28T22:15:37.428Z,13.60
2019-01-28T22:17:42.805Z,477.47
2019-01-28T22:19:49.357Z,141.57
2019-01-28T22:21:59.336Z,22.13
2019-01-28T22:24:06.074Z,2.90
2019-01-28T22:26:14.718Z,1.50
2019-01-28T22:28:25.108Z,1.60
2019-01-28T22:30:30.797Z,1.20
2019-01-28T22:32:36.082Z,1.00
2019-01-28T22:34:47.644Z,7.47
2019-01-28T22:36:47.184Z,68.77
2019-01-28T22:38:51.876Z,144.27
2019-01-28T22:40:58.015Z,384.43
2019-01-28T22:43:03.360Z,693.73
2019-01-28T22:45:11.079Z,359.23
2019-01-28T22:47:23.221Z,106.87
2019-01-28T22:49:28.567Z,20.80
2019-01-28T22:51:35.800Z,5.40
2019-01-28T22:53:42.764Z,83.40
2019-01-28T22:55:49.086Z,589.20
2019-01-28T22:57:53.869Z,165.13
2019-01-28T22:59:59.964Z,33.77
2019-01-28T23:02:06.841Z,6.03
2019-01-28T23:04:17.869Z,38.87
2019-01-28T23:06:26.732Z,662.57
2019-01-28T23:08:31.594Z,602.87
2019-01-28T23:10:39.507Z,900.97
2019-01-28T23:12:45.346Z,616.80
2019-01-28T23:14:50.526Z,332.13
2019-01-28T23:16:54.970Z,165.67
2019-01-28T23:18:59.763Z,494.23
2019-01-28T23:21:05.916Z,267.20
2019-01-28T23:23:13.124Z,63.50
2019-01-28T23:25:27.140Z,14.17
2019-01-28T23:27:31.622Z,800.53
2019-01-28T23:29:36.190Z,999.90
2019-01-28T23:31:43.212Z,999.90
2019-01-28T23:33:49.955Z,999.90
2019-01-28T23:35:55.183Z,972.00
2019-01-28T23:38:00.674Z,850.30
2019-01-28T23:40:08.338Z,715.43
2019-01-28T23:42:15.790Z,775.73
2019-01-28T23:44:22.523Z,541.67
2019-01-28T23:46:29.248Z,359.80
2019-01-28T23:48:35.875Z,989.50
2019-01-28T23:50:41.389Z,947.27
2019-01-28T23:52:48.933Z,911.40
2019-01-28T23:55:04.204Z,921.80
2019-01-28T23:57:14.787Z,685.07
2019-01-28T23:59:20.522Z,322.97
